createdAt,value
2018-10-07T00:00:24.343Z,44.00
2018-10-07T00:02:52.458Z,44.10
2018-10-07T00:05:20.638Z,44.00
2018-10-07T00:07:48.766Z,44.00
2018-10-07T00:10:17.122Z,44.00
2018-10-07T00:12:45.269Z,44.10
2018-10-07T00:15:13.402Z,44.10
2018-10-07T00:17:41.511Z,44.00
2018-10-07T00:20:09.632Z,44.10
2018-10-07T00:22:37.771Z,44.10
2018-10-07T00:25:05.900Z,44.10
2018-10-07T00:27:34.018Z,44.10
2018-10-07T00:30:02.142Z,44.10
2018-10-07T00:32:30.278Z,44.00
2018-10-07T00:34:58.492Z,44.10
2018-10-07T00:37:26.615Z,44.40
2018-10-07T00:39:54.730Z,44.00
2018-10-07T00:42:22.850Z,44.00
2018-10-07T00:44:50.995Z,44.00
2018-10-07T00:47:19.107Z,44.10
2018-10-07T00:49:47.226Z,44.10
2018-10-07T00:52:15.345Z,44.10
2018-10-07T00:54:43.478Z,44.10
2018-10-07T00:57:11.578Z,44.30
2018-10-07T00:59:39.754Z,44.10
2018-10-07T01:02:07.866Z,44.20
2018-10-07T01:04:35.986Z,44.20
2018-10-07T01:07:04.113Z,44.20
2018-10-07T01:09:32.227Z,44.20
2018-10-07T01:12:00.367Z,44.20
2018-10-07T01:14:28.495Z,44.10
2018-10-07T01:16:56.589Z,44.10
2018-10-07T01:19:24.706Z,44.10
2018-10-07T01:21:52.811Z,44.20
2018-10-07T01:24:20.950Z,44.00
2018-10-07T01:26:49.057Z,43.90
2018-10-07T01:29:17.173Z,43.80
2018-10-07T01:31:45.370Z,43.90
2018-10-07T01:34:13.498Z,43.80
2018-10-07T01:36:41.603Z,43.70
2018-10-07T01:39:10.774Z,43.60
2018-10-07T01:41:38.938Z,43.60
2018-10-07T01:44:07.031Z,44.10
2018-10-07T01:46:35.161Z,43.50
2018-10-07T01:49:03.286Z,43.30
2018-10-07T01:51:31.386Z,43.30
2018-10-07T01:53:59.505Z,43.30
2018-10-07T01:56:27.618Z,43.10
2018-10-07T01:58:55.735Z,43.00
2018-10-07T02:01:23.943Z,42.90
2018-10-07T02:03:52.326Z,42.90
2018-10-07T02:06:20.430Z,42.90
2018-10-07T02:08:48.591Z,42.80
2018-10-07T02:11:16.707Z,42.50
2018-10-07T02:13:44.851Z,42.50
2018-10-07T02:16:12.946Z,42.30
2018-10-07T02:18:41.066Z,42.30
2018-10-07T02:21:09.197Z,42.10
2018-10-07T02:23:37.326Z,42.10
2018-10-07T02:26:05.417Z,42.50
2018-10-07T02:28:33.553Z,41.90
2018-10-07T02:31:01.655Z,41.60
2018-10-07T02:33:29.767Z,41.60
2018-10-07T02:35:57.870Z,41.40
2018-10-07T02:38:25.977Z,41.00
2018-10-07T02:40:54.099Z,40.90
2018-10-07T02:43:22.222Z,40.90
2018-10-07T02:45:50.346Z,40.80
2018-10-07T02:48:18.438Z,40.80
2018-10-07T02:50:46.554Z,41.10
2018-10-07T02:53:14.712Z,40.60
2018-10-07T02:55:42.790Z,40.50
2018-10-07T02:58:10.899Z,40.10
2018-10-07T03:00:39.014Z,40.30
2018-10-07T03:03:07.198Z,40.10
2018-10-07T03:05:35.307Z,40.00
2018-10-07T03:08:03.546Z,40.00
2018-10-07T03:10:31.655Z,39.90
2018-10-07T03:12:59.787Z,39.90
2018-10-07T03:15:27.908Z,39.90
2018-10-07T03:17:56.059Z,39.90
2018-10-07T03:20:24.167Z,39.60
2018-10-07T03:22:52.297Z,39.80
2018-10-07T03:25:20.389Z,39.80
2018-10-07T03:27:48.508Z,39.80
2018-10-07T03:30:16.651Z,39.80
2018-10-07T03:32:44.759Z,39.90
2018-10-07T03:35:12.882Z,39.60
2018-10-07T03:37:40.991Z,39.70
2018-10-07T03:40:09.147Z,39.80
2018-10-07T03:42:37.262Z,39.80
2018-10-07T03:45:05.382Z,39.70
2018-10-07T03:47:33.616Z,39.70
2018-10-07T03:50:01.727Z,39.70
2018-10-07T03:52:29.946Z,39.60
2018-10-07T03:54:58.050Z,39.50
2018-10-07T03:57:26.158Z,39.60
2018-10-07T03:59:54.302Z,39.50
2018-10-07T04:02:22.454Z,39.50
2018-10-07T04:04:50.560Z,39.60
2018-10-07T04:07:18.695Z,39.50
2018-10-07T04:09:46.822Z,39.50
2018-10-07T04:12:14.954Z,39.40
2018-10-07T04:14:43.078Z,39.50
2018-10-07T04:17:11.191Z,39.40
2018-10-07T04:19:39.286Z,39.30
2018-10-07T04:22:07.462Z,39.20
2018-10-07T04:24:35.782Z,39.20
2018-10-07T04:27:03.930Z,39.20
2018-10-07T04:29:32.030Z,39.20
2018-10-07T04:32:00.150Z,39.30
2018-10-07T04:34:28.290Z,39.30
2018-10-07T04:36:56.390Z,39.30
2018-10-07T04:39:24.523Z,39.30
2018-10-07T04:41:52.629Z,39.20
2018-10-07T04:44:20.852Z,39.10
2018-10-07T04:46:48.962Z,39.10
2018-10-07T04:49:17.071Z,39.10
2018-10-07T04:51:45.195Z,39.10
2018-10-07T04:54:13.317Z,39.10
2018-10-07T04:56:41.458Z,39.10
2018-10-07T04:59:09.590Z,39.00
2018-10-07T05:01:37.713Z,39.00
2018-10-07T05:04:05.814Z,38.90
2018-10-07T05:06:35.182Z,38.90
2018-10-07T05:09:06.719Z,38.90
2018-10-07T05:11:34.869Z,38.80
2018-10-07T05:14:04.379Z,38.80
2018-10-07T05:16:37.388Z,38.90
2018-10-07T05:19:06.108Z,38.80
2018-10-07T05:21:34.215Z,38.80
2018-10-07T05:24:02.389Z,38.70
2018-10-07T05:26:30.616Z,38.80
2018-10-07T05:28:58.759Z,38.70
2018-10-07T05:31:26.890Z,38.70
2018-10-07T05:33:55.422Z,38.60
2018-10-07T05:36:23.795Z,38.70
2018-10-07T05:38:51.943Z,38.70
2018-10-07T05:41:20.244Z,38.70
2018-10-07T05:43:48.390Z,38.60
2018-10-07T05:46:16.534Z,38.60
2018-10-07T05:48:44.882Z,38.60
2018-10-07T05:51:13.027Z,38.60
2018-10-07T05:53:41.202Z,38.70
2018-10-07T05:56:09.311Z,38.70
2018-10-07T05:58:38.099Z,38.70
2018-10-07T06:01:09.451Z,38.60
2018-10-07T06:04:20.299Z,38.60
2018-10-07T06:06:48.477Z,38.60
2018-10-07T06:09:23.303Z,38.60
2018-10-07T06:11:51.613Z,38.50
2018-10-07T06:14:31.965Z,38.60
2018-10-07T06:17:00.099Z,38.50
2018-10-07T06:19:28.494Z,38.30
2018-10-07T06:21:56.633Z,38.40
2018-10-07T06:24:25.046Z,38.20
2018-10-07T06:26:53.439Z,38.20
2018-10-07T06:29:21.706Z,38.30
2018-10-07T06:31:49.831Z,38.20
2018-10-07T06:34:17.999Z,38.30
2018-10-07T06:36:46.131Z,38.20
2018-10-07T06:39:14.295Z,38.10
2018-10-07T06:41:42.430Z,38.00
2018-10-07T06:44:10.748Z,38.10
2018-10-07T06:46:38.938Z,38.10
2018-10-07T06:49:07.051Z,38.00
2018-10-07T06:51:35.510Z,37.90
2018-10-07T06:54:03.637Z,37.90
2018-10-07T06:56:31.743Z,37.80
2018-10-07T06:58:59.885Z,37.80
2018-10-07T07:01:28.210Z,37.90
2018-10-07T07:03:56.366Z,37.90
2018-10-07T07:06:24.522Z,37.80
2018-10-07T07:08:52.670Z,37.80
2018-10-07T07:11:20.792Z,38.50
2018-10-07T07:13:48.915Z,37.70
2018-10-07T07:16:17.031Z,37.70
2018-10-07T07:18:45.144Z,37.70
2018-10-07T07:21:13.242Z,37.70
2018-10-07T07:23:41.722Z,37.70
2018-10-07T07:26:09.858Z,37.60
2018-10-07T07:28:38.002Z,37.60
2018-10-07T07:31:06.426Z,37.60
2018-10-07T07:33:34.567Z,37.60
2018-10-07T07:36:03.059Z,37.50
2018-10-07T07:38:31.183Z,37.50
2018-10-07T07:40:59.298Z,37.50
2018-10-07T07:43:27.408Z,37.60
2018-10-07T07:45:55.544Z,37.40
2018-10-07T07:48:23.691Z,37.30
2018-10-07T07:50:51.829Z,37.40
2018-10-07T07:53:19.951Z,37.40
2018-10-07T07:55:48.114Z,37.30
2018-10-07T07:58:16.235Z,37.40
2018-10-07T08:00:44.355Z,37.40
2018-10-07T08:03:12.506Z,37.40
2018-10-07T08:05:40.614Z,37.30
2018-10-07T08:08:08.730Z,37.30
2018-10-07T08:10:36.838Z,37.30
2018-10-07T08:13:04.944Z,37.20
2018-10-07T08:15:33.082Z,37.20
2018-10-07T08:18:01.186Z,37.20
2018-10-07T08:20:29.414Z,37.80
2018-10-07T08:22:57.506Z,37.10
2018-10-07T08:25:25.647Z,37.20
2018-10-07T08:27:53.768Z,37.10
2018-10-07T08:30:21.886Z,37.10
2018-10-07T08:32:50.443Z,37.10
2018-10-07T08:35:18.899Z,37.00
2018-10-07T08:37:47.099Z,37.00
2018-10-07T08:40:15.223Z,37.00
2018-10-07T08:42:43.451Z,37.10
2018-10-07T08:45:11.587Z,36.70
2018-10-07T08:47:39.762Z,36.80
2018-10-07T08:50:07.878Z,37.50
2018-10-07T08:52:36.006Z,37.00
2018-10-07T08:55:04.191Z,36.80
2018-10-07T08:57:32.383Z,36.80
2018-10-07T09:00:00.528Z,36.70
2018-10-07T09:02:28.698Z,36.60
2018-10-07T09:04:56.888Z,36.90
2018-10-07T09:07:25.042Z,35.90
2018-10-07T09:09:53.173Z,36.40
2018-10-07T09:12:21.278Z,36.00
2018-10-07T09:14:49.513Z,36.70
2018-10-07T09:17:17.627Z,36.20
2018-10-07T09:19:45.791Z,36.20
2018-10-07T09:22:14.140Z,36.40
2018-10-07T09:24:42.330Z,36.00
2018-10-07T09:27:10.517Z,36.10
2018-10-07T09:29:38.590Z,36.10
2018-10-07T09:32:06.871Z,36.10
2018-10-07T09:34:35.431Z,36.10
2018-10-07T09:37:03.765Z,36.80
2018-10-07T09:39:32.073Z,36.20
2018-10-07T09:42:00.127Z,37.00
2018-10-07T09:44:28.239Z,36.40
2018-10-07T09:46:56.385Z,36.60
2018-10-07T09:49:24.542Z,37.20
2018-10-07T09:51:52.666Z,36.50
2018-10-07T09:54:20.847Z,36.50
2018-10-07T09:56:48.973Z,36.70
2018-10-07T09:59:17.339Z,36.90
2018-10-07T10:01:45.595Z,36.90
2018-10-07T10:04:13.768Z,37.00
2018-10-07T10:06:41.866Z,37.30
2018-10-07T10:09:10.895Z,37.00
2018-10-07T10:11:39.086Z,37.00
2018-10-07T10:14:07.240Z,37.10
2018-10-07T10:16:45.455Z,37.10
2018-10-07T10:19:18.852Z,37.10
2018-10-07T10:21:50.939Z,37.30
2018-10-07T10:25:04.722Z,37.40
2018-10-07T10:27:45.168Z,37.20
2018-10-07T10:30:25.323Z,37.30
2018-10-07T10:32:58.202Z,37.50
2018-10-07T10:35:36.624Z,37.30
2018-10-07T10:38:09.970Z,37.70
2018-10-07T10:40:43.290Z,36.80
2018-10-07T10:43:18.635Z,36.80
2018-10-07T10:45:54.441Z,36.80
2018-10-07T10:48:29.490Z,36.50
2018-10-07T10:51:11.034Z,36.70
2018-10-07T10:53:43.011Z,36.60
2018-10-07T10:56:31.290Z,36.00
2018-10-07T10:59:26.768Z,36.10
2018-10-07T11:03:09.711Z,36.20
2018-10-07T11:05:54.217Z,36.10
2018-10-07T11:08:32.691Z,36.10
2018-10-07T11:11:16.221Z,36.50
2018-10-07T11:13:57.630Z,35.40
2018-10-07T11:17:36.821Z,36.10
2018-10-07T11:20:21.071Z,35.30
2018-10-07T11:25:04.027Z,35.20
2018-10-07T11:30:17.675Z,34.60
2018-10-07T11:33:00.695Z,35.60
2018-10-07T11:35:41.843Z,35.20
2018-10-07T11:38:35.806Z,35.80
2018-10-07T11:41:10.496Z,36.20
2018-10-07T11:44:04.019Z,36.10
2018-10-07T11:48:47.521Z,35.80
2018-10-07T11:53:30.728Z,35.10
2018-10-07T11:55:58.857Z,35.80
2018-10-07T11:58:26.991Z,35.60
2018-10-07T12:00:55.126Z,35.60
2018-10-07T12:03:23.268Z,35.50
2018-10-07T12:05:51.447Z,35.30
2018-10-07T12:08:19.666Z,35.30
2018-10-07T12:10:47.794Z,34.90
2018-10-07T12:13:15.984Z,35.40
2018-10-07T12:15:44.108Z,35.20
2018-10-07T12:18:12.570Z,35.40
2018-10-07T12:20:40.697Z,35.10
2018-10-07T12:23:08.926Z,35.40
2018-10-07T12:25:37.294Z,34.60
2018-10-07T12:28:05.458Z,34.70
2018-10-07T12:30:33.691Z,35.10
2018-10-07T12:33:01.941Z,35.10
2018-10-07T12:35:30.202Z,35.70
2018-10-07T12:37:58.392Z,36.40
2018-10-07T12:40:26.582Z,34.80
2018-10-07T12:42:55.058Z,35.20
2018-10-07T12:45:23.191Z,31.80
2018-10-07T12:47:51.440Z,31.80
2018-10-07T12:50:19.774Z,30.60
2018-10-07T12:52:48.285Z,31.00
2018-10-07T12:55:16.446Z,30.80
2018-10-07T12:57:44.569Z,30.80
2018-10-07T13:00:12.711Z,30.40
2018-10-07T13:02:40.854Z,30.50
2018-10-07T13:05:09.041Z,30.50
2018-10-07T13:07:37.176Z,30.30
2018-10-07T13:10:05.723Z,30.30
2018-10-07T13:12:33.886Z,30.40
2018-10-07T13:15:02.014Z,30.10
2018-10-07T13:17:30.185Z,30.10
2018-10-07T13:19:58.315Z,30.50
2018-10-07T13:22:26.442Z,30.50
2018-10-07T13:24:54.554Z,30.80
2018-10-07T13:27:22.757Z,31.20
2018-10-07T13:29:50.867Z,31.50
2018-10-07T13:32:19.011Z,32.50
2018-10-07T13:34:47.139Z,32.40
2018-10-07T13:37:15.354Z,33.20
2018-10-07T13:39:43.567Z,33.00
2018-10-07T13:42:11.715Z,33.00
2018-10-07T13:44:39.870Z,32.40
2018-10-07T13:47:08.021Z,33.30
2018-10-07T13:49:36.167Z,33.60
2018-10-07T13:52:04.350Z,34.00
2018-10-07T13:54:32.527Z,34.00
2018-10-07T13:57:00.756Z,33.60
2018-10-07T13:59:28.881Z,33.90
2018-10-07T14:01:56.994Z,33.90
2018-10-07T14:04:25.203Z,34.30
2018-10-07T14:06:53.315Z,34.00
2018-10-07T14:09:21.618Z,34.80
2018-10-07T14:11:49.730Z,34.10
2018-10-07T14:14:17.878Z,34.50
2018-10-07T14:16:45.996Z,34.10
2018-10-07T14:19:14.131Z,34.20
2018-10-07T14:21:42.254Z,34.40
2018-10-07T14:24:10.384Z,34.50
2018-10-07T14:26:38.574Z,34.40
2018-10-07T14:29:06.794Z,34.50
2018-10-07T14:31:35.016Z,35.10
2018-10-07T14:34:03.299Z,35.40
2018-10-07T14:36:31.452Z,35.60
2018-10-07T14:38:59.604Z,35.10
2018-10-07T14:41:27.741Z,35.30
2018-10-07T14:43:55.851Z,35.40
2018-10-07T14:46:24.008Z,35.30
2018-10-07T14:48:52.114Z,35.40
2018-10-07T14:51:20.299Z,35.50
2018-10-07T14:53:48.446Z,35.60
2018-10-07T14:56:16.611Z,35.50
2018-10-07T14:58:44.758Z,35.90
2018-10-07T15:01:12.971Z,35.90
2018-10-07T15:03:41.047Z,35.80
2018-10-07T15:06:09.207Z,35.60
2018-10-07T15:08:37.338Z,35.30
2018-10-07T15:11:05.467Z,34.80
2018-10-07T15:13:33.631Z,34.40
2018-10-07T15:16:01.808Z,34.20
2018-10-07T15:18:30.079Z,34.30
2018-10-07T15:20:58.242Z,34.20
2018-10-07T15:23:26.496Z,34.50
2018-10-07T15:25:54.647Z,34.40
2018-10-07T15:28:22.891Z,34.50
2018-10-07T15:30:51.043Z,34.50
2018-10-07T15:33:19.218Z,34.80
2018-10-07T15:35:48.381Z,34.80
2018-10-07T15:38:16.620Z,34.70
2018-10-07T15:40:44.941Z,34.90
2018-10-07T15:43:13.075Z,35.10
2018-10-07T15:45:41.205Z,35.00
2018-10-07T15:48:09.386Z,35.00
2018-10-07T15:50:37.859Z,35.00
2018-10-07T15:53:06.190Z,35.00
2018-10-07T15:55:34.398Z,35.00
2018-10-07T15:58:02.640Z,34.90
2018-10-07T16:00:30.794Z,34.80
2018-10-07T16:02:58.919Z,34.90
2018-10-07T16:05:27.111Z,34.90
2018-10-07T16:07:55.378Z,34.70
2018-10-07T16:10:23.591Z,34.60
2018-10-07T16:12:51.706Z,34.70
2018-10-07T16:15:19.819Z,34.60
2018-10-07T16:17:48.011Z,35.00
2018-10-07T16:20:16.132Z,34.70
2018-10-07T16:22:44.327Z,35.30
2018-10-07T16:25:12.464Z,35.30
2018-10-07T16:27:40.627Z,35.30
2018-10-07T16:30:08.747Z,35.40
2018-10-07T16:32:37.059Z,35.50
2018-10-07T16:35:05.261Z,35.60
2018-10-07T16:37:33.367Z,35.50
2018-10-07T16:40:01.531Z,35.60
2018-10-07T16:42:29.651Z,35.10
2018-10-07T16:44:57.839Z,35.40
2018-10-07T16:47:25.934Z,36.30
2018-10-07T16:49:54.031Z,35.60
2018-10-07T16:52:22.196Z,35.70
2018-10-07T16:54:50.365Z,35.60
2018-10-07T16:57:18.466Z,35.50
2018-10-07T16:59:46.681Z,35.50
2018-10-07T17:02:14.845Z,35.50
2018-10-07T17:04:42.983Z,35.50
2018-10-07T17:07:11.175Z,35.40
2018-10-07T17:09:39.294Z,35.40
2018-10-07T17:12:07.399Z,35.40
2018-10-07T17:14:35.503Z,35.40
2018-10-07T17:17:03.637Z,35.40
2018-10-07T17:19:31.748Z,35.40
2018-10-07T17:21:59.923Z,35.40
2018-10-07T17:24:28.070Z,35.40
2018-10-07T17:26:56.222Z,35.30
2018-10-07T17:29:24.346Z,35.40
2018-10-07T17:31:52.461Z,35.30
2018-10-07T17:34:20.566Z,35.40
2018-10-07T17:36:48.716Z,35.40
2018-10-07T17:39:16.826Z,35.40
2018-10-07T17:41:44.949Z,35.40
2018-10-07T17:44:13.065Z,35.40
2018-10-07T17:46:41.161Z,35.40
2018-10-07T17:49:09.406Z,35.40
2018-10-07T17:51:37.436Z,35.50
2018-10-07T17:54:05.847Z,35.50
2018-10-07T17:56:34.052Z,35.40
2018-10-07T17:59:02.223Z,35.50
2018-10-07T18:01:30.336Z,35.50
2018-10-07T18:03:58.462Z,35.60
2018-10-07T18:06:26.578Z,35.50
2018-10-07T18:08:54.680Z,35.30
2018-10-07T18:11:22.785Z,35.50
2018-10-07T18:13:50.995Z,35.50
2018-10-07T18:16:19.090Z,35.50
2018-10-07T18:18:47.219Z,35.50
2018-10-07T18:21:15.435Z,35.50
2018-10-07T18:23:43.470Z,35.60
2018-10-07T18:26:11.731Z,35.50
2018-10-07T18:28:39.825Z,35.60
2018-10-07T18:31:07.934Z,35.60
2018-10-07T18:33:36.126Z,35.50
2018-10-07T18:36:04.222Z,36.10
2018-10-07T18:38:32.342Z,35.50
2018-10-07T18:41:00.678Z,36.20
2018-10-07T18:43:28.818Z,35.50
2018-10-07T18:45:56.983Z,35.50
2018-10-07T18:48:25.131Z,35.50
2018-10-07T18:50:53.231Z,35.60
2018-10-07T18:53:21.469Z,36.20
2018-10-07T18:55:49.626Z,35.60
2018-10-07T18:58:17.760Z,35.70
2018-10-07T19:00:45.867Z,35.70
2018-10-07T19:03:13.970Z,35.70
2018-10-07T19:05:42.081Z,35.70
2018-10-07T19:08:10.193Z,35.70
2018-10-07T19:10:38.318Z,35.80
2018-10-07T19:13:06.437Z,36.40
2018-10-07T19:15:34.562Z,35.80
2018-10-07T19:18:03.230Z,35.90
2018-10-07T19:20:31.390Z,35.90
2018-10-07T19:22:59.499Z,35.90
2018-10-07T19:25:27.646Z,35.90
2018-10-07T19:27:55.963Z,35.80
2018-10-07T19:30:24.099Z,35.80
2018-10-07T19:32:52.227Z,35.90
2018-10-07T19:35:20.332Z,36.00
2018-10-07T19:37:48.494Z,36.00
2018-10-07T19:40:16.601Z,36.00
2018-10-07T19:42:44.752Z,36.10
2018-10-07T19:45:12.863Z,36.10
2018-10-07T19:47:40.970Z,36.20
2018-10-07T19:50:09.279Z,36.10
2018-10-07T19:52:37.448Z,36.10
2018-10-07T19:55:05.568Z,36.10
2018-10-07T19:57:33.722Z,36.70
2018-10-07T20:00:01.839Z,36.10
2018-10-07T20:02:29.958Z,36.10
2018-10-07T20:04:58.102Z,36.10
2018-10-07T20:07:26.215Z,36.30
2018-10-07T20:09:54.351Z,36.40
2018-10-07T20:12:22.470Z,36.30
2018-10-07T20:14:50.571Z,36.30
2018-10-07T20:17:18.684Z,36.40
2018-10-07T20:19:46.814Z,36.50
2018-10-07T20:22:16.639Z,36.60
2018-10-07T20:24:44.859Z,36.60
2018-10-07T20:27:13.014Z,36.80
2018-10-07T20:29:41.702Z,36.90
2018-10-07T20:32:10.007Z,37.00
2018-10-07T20:34:38.123Z,37.10
2018-10-07T20:37:06.486Z,37.10
2018-10-07T20:39:34.606Z,37.30
2018-10-07T20:42:02.735Z,37.30
2018-10-07T20:44:30.847Z,37.50
2018-10-07T20:46:58.977Z,38.00
2018-10-07T20:49:27.098Z,37.60
2018-10-07T20:51:55.286Z,37.60
2018-10-07T20:54:23.346Z,37.60
2018-10-07T20:56:51.566Z,37.60
2018-10-07T20:59:19.666Z,37.60
2018-10-07T21:01:47.817Z,37.70
2018-10-07T21:04:15.911Z,37.70
2018-10-07T21:06:44.027Z,37.70
2018-10-07T21:09:12.693Z,37.70
2018-10-07T21:11:40.824Z,37.70
2018-10-07T21:14:08.962Z,37.60
2018-10-07T21:16:37.395Z,37.70
2018-10-07T21:19:05.563Z,37.80
2018-10-07T21:21:33.870Z,37.80
2018-10-07T21:24:02.434Z,37.90
2018-10-07T21:26:30.634Z,37.80
2018-10-07T21:28:58.750Z,37.80
2018-10-07T21:31:26.863Z,37.70
2018-10-07T21:33:54.998Z,37.80
2018-10-07T21:36:23.116Z,37.70
2018-10-07T21:38:51.250Z,37.60
2018-10-07T21:41:19.374Z,38.30
2018-10-07T21:43:47.526Z,37.60
2018-10-07T21:46:15.740Z,37.70
2018-10-07T21:48:43.904Z,37.70
2018-10-07T21:51:12.164Z,37.80
2018-10-07T21:53:40.363Z,37.80
2018-10-07T21:56:08.491Z,37.80
2018-10-07T21:58:36.603Z,37.70
2018-10-07T22:01:04.722Z,37.70
2018-10-07T22:03:32.871Z,37.70
2018-10-07T22:06:00.998Z,37.80
2018-10-07T22:08:29.126Z,37.70
2018-10-07T22:10:57.263Z,37.80
2018-10-07T22:13:25.388Z,37.80
2018-10-07T22:15:53.518Z,38.30
2018-10-07T22:18:21.627Z,37.60
2018-10-07T22:20:49.750Z,37.70
2018-10-07T22:23:17.854Z,37.50
2018-10-07T22:25:45.984Z,37.60
2018-10-07T22:28:14.098Z,37.50
2018-10-07T22:30:42.233Z,37.50
2018-10-07T22:33:10.365Z,37.50
2018-10-07T22:35:38.694Z,37.50
2018-10-07T22:38:06.836Z,37.40
2018-10-07T22:40:34.946Z,37.30
2018-10-07T22:43:03.046Z,37.30
2018-10-07T22:45:31.138Z,37.30
2018-10-07T22:47:59.247Z,38.00
2018-10-07T22:50:27.389Z,37.40
2018-10-07T22:52:55.610Z,37.30
2018-10-07T22:55:23.735Z,37.20
2018-10-07T22:57:51.817Z,37.20
2018-10-07T23:00:19.914Z,37.30
2018-10-07T23:02:48.012Z,37.20
2018-10-07T23:05:16.133Z,37.20
2018-10-07T23:07:44.230Z,37.20
2018-10-07T23:10:12.316Z,37.20
2018-10-07T23:12:40.424Z,37.20
2018-10-07T23:15:08.505Z,37.20
2018-10-07T23:17:36.609Z,37.20
2018-10-07T23:20:05.291Z,37.20
2018-10-07T23:22:33.501Z,37.30
2018-10-07T23:25:01.658Z,37.30
2018-10-07T23:27:29.822Z,37.80
2018-10-07T23:29:57.921Z,37.30
2018-10-07T23:32:26.026Z,37.20
2018-10-07T23:34:54.160Z,37.30
2018-10-07T23:37:22.544Z,37.20
2018-10-07T23:39:50.796Z,37.30
2018-10-07T23:42:18.951Z,37.20
2018-10-07T23:44:47.417Z,37.20
2018-10-07T23:47:15.512Z,37.20
2018-10-07T23:49:43.645Z,37.20
2018-10-07T23:52:11.930Z,37.20
2018-10-07T23:54:40.011Z,37.20
2018-10-07T23:57:08.162Z,37.10
2018-10-07T23:59:36.254Z,36.80
